createdAt,value
2022-11-13T00:01:39.378Z,8.65
2022-11-13T00:04:41.602Z,9.48
2022-11-13T00:07:43.836Z,10.73
2022-11-13T00:10:45.992Z,8.98
2022-11-13T00:13:49.207Z,8.45
2022-11-13T00:16:51.402Z,9.27
2022-11-13T00:19:53.591Z,8.70
2022-11-13T00:22:56.194Z,8.77
2022-11-13T00:26:04.347Z,8.80
2022-11-13T00:29:06.513Z,9.75
2022-11-13T00:32:08.828Z,8.48
2022-11-13T00:35:11.034Z,7.72
2022-11-13T00:38:13.170Z,6.93
2022-11-13T00:41:15.432Z,8.18
2022-11-13T00:44:17.585Z,7.40
2022-11-13T00:47:19.741Z,7.18
2022-11-13T00:50:21.952Z,7.72
2022-11-13T00:53:24.189Z,9.02
2022-11-13T00:56:26.527Z,7.18
2022-11-13T00:59:28.679Z,8.38
2022-11-13T01:02:30.841Z,8.23
2022-11-13T01:05:37.100Z,8.32
2022-11-13T01:08:39.319Z,7.15
2022-11-13T01:11:41.728Z,8.02
2022-11-13T01:14:43.903Z,7.07
2022-11-13T01:17:46.079Z,8.48
2022-11-13T01:20:48.244Z,8.32
2022-11-13T01:23:50.587Z,7.32
2022-11-13T01:26:52.746Z,7.55
2022-11-13T01:29:54.907Z,8.02
2022-11-13T01:32:57.125Z,7.93
2022-11-13T01:36:14.737Z,8.10
2022-11-13T01:39:16.915Z,8.27
2022-11-13T01:42:19.100Z,7.78
2022-11-13T01:45:58.588Z,7.55
2022-11-13T01:49:09.637Z,7.47
2022-11-13T01:52:18.837Z,6.47
2022-11-13T01:55:20.998Z,6.18
2022-11-13T01:58:23.432Z,6.45
2022-11-13T02:01:26.076Z,6.82
2022-11-13T02:04:28.975Z,8.35
2022-11-13T02:07:31.172Z,8.60
2022-11-13T02:10:33.423Z,7.55
2022-11-13T02:13:37.890Z,5.07
2022-11-13T02:16:40.423Z,7.03
2022-11-13T02:19:45.763Z,6.97
2022-11-13T02:22:59.453Z,6.30
2022-11-13T02:26:02.246Z,8.07
2022-11-13T02:29:04.413Z,7.43
2022-11-13T02:32:06.658Z,8.10
2022-11-13T02:35:08.856Z,6.37
2022-11-13T02:38:11.021Z,7.15
2022-11-13T02:41:13.187Z,6.10
2022-11-13T02:44:15.344Z,7.60
2022-11-13T02:47:17.521Z,8.07
2022-11-13T02:50:19.900Z,7.53
2022-11-13T02:53:22.127Z,6.65
2022-11-13T02:56:24.382Z,7.90
2022-11-13T02:59:26.538Z,8.50
2022-11-13T03:02:28.705Z,7.80
2022-11-13T03:05:30.868Z,7.37
2022-11-13T03:08:34.261Z,8.45
2022-11-13T03:11:36.995Z,8.00
2022-11-13T03:14:39.144Z,7.18
2022-11-13T03:17:41.397Z,8.30
2022-11-13T03:20:43.999Z,6.93
2022-11-13T03:23:46.236Z,5.90
2022-11-13T03:26:48.478Z,8.65
2022-11-13T03:29:50.638Z,7.25
2022-11-13T03:32:56.203Z,5.85
2022-11-13T03:35:58.505Z,6.12
2022-11-13T03:39:00.662Z,6.72
2022-11-13T03:42:02.798Z,7.10
2022-11-13T03:45:05.289Z,7.65
2022-11-13T03:48:07.596Z,7.43
2022-11-13T03:51:10.033Z,10.20
2022-11-13T03:54:12.213Z,9.50
2022-11-13T03:57:14.359Z,6.03
2022-11-13T04:00:17.077Z,7.28
2022-11-13T04:03:20.200Z,6.93
2022-11-13T04:06:22.440Z,6.75
2022-11-13T04:09:25.028Z,6.12
2022-11-13T04:12:27.234Z,6.87
2022-11-13T04:15:29.409Z,4.60
2022-11-13T04:18:31.882Z,6.60
2022-11-13T04:21:34.106Z,5.15
2022-11-13T04:24:36.273Z,6.78
2022-11-13T04:27:38.554Z,7.10
2022-11-13T04:30:40.705Z,7.50
2022-11-13T04:33:42.947Z,7.78
2022-11-13T04:36:45.115Z,7.50
2022-11-13T04:39:47.282Z,8.10
2022-11-13T04:42:49.456Z,5.95
2022-11-13T04:45:52.835Z,6.25
2022-11-13T04:48:55.027Z,7.25
2022-11-13T04:51:57.209Z,6.62
2022-11-13T04:54:59.408Z,7.18
2022-11-13T04:58:01.567Z,6.72
2022-11-13T05:01:04.215Z,6.97
2022-11-13T05:04:06.375Z,6.60
2022-11-13T05:07:08.587Z,6.90
2022-11-13T05:10:10.988Z,6.95
2022-11-13T05:13:13.195Z,7.10
2022-11-13T05:16:15.727Z,6.70
2022-11-13T05:19:18.053Z,6.62
2022-11-13T05:22:20.313Z,7.53
2022-11-13T05:25:22.446Z,6.87
2022-11-13T05:28:26.683Z,5.55
2022-11-13T05:31:29.071Z,6.20
2022-11-13T05:34:31.358Z,7.07
2022-11-13T05:37:33.558Z,7.45
2022-11-13T05:40:35.773Z,7.32
2022-11-13T05:43:39.152Z,7.25
2022-11-13T05:46:41.320Z,8.50
2022-11-13T05:49:43.518Z,10.23
2022-11-13T05:52:45.666Z,9.82
2022-11-13T05:55:47.820Z,11.48
2022-11-13T05:58:51.075Z,16.48
2022-11-13T06:01:53.319Z,13.65
2022-11-13T06:04:56.633Z,5.07
2022-11-13T06:07:58.945Z,4.72
2022-11-13T06:11:02.863Z,6.85
2022-11-13T06:14:05.048Z,5.07
2022-11-13T06:17:07.213Z,7.15
2022-11-13T06:20:09.727Z,10.15
2022-11-13T06:23:11.888Z,8.82
2022-11-13T06:26:18.068Z,20.35
2022-11-13T06:29:20.408Z,10.27
2022-11-13T06:32:22.540Z,8.57
2022-11-13T06:35:24.725Z,9.77
2022-11-13T06:38:27.192Z,18.20
2022-11-13T06:41:31.445Z,8.93
2022-11-13T06:44:33.635Z,8.93
2022-11-13T06:47:35.824Z,5.97
2022-11-13T06:50:38.052Z,6.18
2022-11-13T06:53:40.229Z,5.62
2022-11-13T06:56:45.511Z,6.75
2022-11-13T06:59:47.733Z,7.12
2022-11-13T07:02:52.959Z,7.57
2022-11-13T07:05:55.139Z,8.23
2022-11-13T07:08:57.351Z,6.78
2022-11-13T07:11:59.543Z,10.40
2022-11-13T07:15:01.687Z,10.48
2022-11-13T07:18:05.011Z,10.35
2022-11-13T07:21:09.105Z,8.43
2022-11-13T07:24:16.546Z,5.60
2022-11-13T07:27:19.209Z,5.65
2022-11-13T07:30:21.452Z,6.10
2022-11-13T07:33:23.633Z,5.32
2022-11-13T07:36:25.836Z,5.15
2022-11-13T07:39:28.029Z,4.82
2022-11-13T07:42:30.191Z,4.43
2022-11-13T07:45:32.408Z,5.68
2022-11-13T07:48:34.612Z,5.62
2022-11-13T07:51:36.777Z,6.00
2022-11-13T07:54:38.934Z,5.75
2022-11-13T07:57:41.103Z,6.15
2022-11-13T08:00:43.402Z,5.62
2022-11-13T08:03:45.920Z,5.65
2022-11-13T08:06:48.140Z,8.38
2022-11-13T08:09:50.321Z,8.35
2022-11-13T08:13:09.266Z,6.20
2022-11-13T08:16:11.409Z,5.62
2022-11-13T08:19:13.614Z,7.70
2022-11-13T08:22:16.047Z,6.25
2022-11-13T08:25:18.641Z,6.07
2022-11-13T08:28:20.809Z,6.40
2022-11-13T08:31:23.017Z,5.30
2022-11-13T08:34:28.951Z,6.00
2022-11-13T08:37:32.234Z,6.12
2022-11-13T08:40:36.606Z,8.75
2022-11-13T08:43:38.783Z,7.50
2022-11-13T08:46:41.183Z,9.13
2022-11-13T08:49:43.772Z,7.07
2022-11-13T08:52:47.171Z,8.07
2022-11-13T08:55:49.734Z,9.10
2022-11-13T08:58:51.866Z,9.25
2022-11-13T09:01:59.277Z,8.27
2022-11-13T09:05:01.575Z,9.25
2022-11-13T09:08:04.138Z,7.70
2022-11-13T09:11:06.862Z,8.35
2022-11-13T09:14:09.107Z,7.72
2022-11-13T09:17:11.382Z,9.25
2022-11-13T09:20:14.269Z,9.40
2022-11-13T09:23:16.804Z,10.05
2022-11-13T09:26:18.971Z,7.40
2022-11-13T09:29:23.327Z,8.43
2022-11-13T09:32:25.563Z,10.20
2022-11-13T09:35:34.595Z,8.80
2022-11-13T09:38:36.789Z,5.95
2022-11-13T09:41:48.710Z,7.03
2022-11-13T09:45:15.164Z,6.40
2022-11-13T09:48:34.775Z,7.18
2022-11-13T09:51:38.303Z,7.60
2022-11-13T09:54:40.556Z,7.10
2022-11-13T09:57:49.285Z,7.60
2022-11-13T10:00:51.862Z,8.02
2022-11-13T10:04:03.406Z,7.62
2022-11-13T10:07:43.669Z,8.35
2022-11-13T10:10:58.725Z,7.07
2022-11-13T10:14:15.976Z,6.57
2022-11-13T10:17:24.020Z,7.22
2022-11-13T10:20:34.469Z,8.20
2022-11-13T10:23:38.500Z,8.20
2022-11-13T10:26:40.736Z,8.18
2022-11-13T10:29:47.785Z,7.75
2022-11-13T10:32:51.721Z,12.37
2022-11-13T10:36:15.059Z,8.48
2022-11-13T10:39:17.213Z,7.57
2022-11-13T10:42:27.189Z,7.62
2022-11-13T10:45:29.341Z,8.02
2022-11-13T10:48:35.520Z,8.75
2022-11-13T10:51:39.252Z,9.35
2022-11-13T10:54:41.442Z,8.57
2022-11-13T10:57:47.056Z,8.07
2022-11-13T11:00:49.928Z,8.68
2022-11-13T11:03:52.307Z,8.57
2022-11-13T11:10:26.551Z,9.25
2022-11-13T11:13:28.730Z,11.60
2022-11-13T11:16:31.198Z,11.15
2022-11-13T11:19:37.120Z,10.75
2022-11-13T11:22:40.579Z,8.77
2022-11-13T11:25:50.792Z,10.82
2022-11-13T11:29:02.001Z,11.82
2022-11-13T11:32:22.433Z,11.10
2022-11-13T11:35:28.380Z,12.88
2022-11-13T11:38:40.808Z,11.32
2022-11-13T11:42:19.879Z,10.55
2022-11-13T11:45:38.797Z,11.45
2022-11-13T11:48:41.120Z,9.38
2022-11-13T11:51:58.652Z,9.80
2022-11-13T11:55:13.958Z,9.80
2022-11-13T11:58:31.677Z,10.15
2022-11-13T12:02:02.677Z,9.50
2022-11-13T12:05:45.583Z,10.87
2022-11-13T12:08:50.364Z,8.13
2022-11-13T12:11:56.157Z,9.75
2022-11-13T12:15:26.104Z,10.18
2022-11-13T12:18:37.449Z,10.32
2022-11-13T12:22:01.556Z,8.77
2022-11-13T12:25:25.516Z,9.40
2022-11-13T12:28:51.967Z,11.32
2022-11-13T12:32:41.792Z,9.40
2022-11-13T12:35:46.653Z,9.20
2022-11-13T12:38:54.902Z,9.80
2022-11-13T12:42:01.470Z,9.43
2022-11-13T12:45:12.758Z,10.88
2022-11-13T12:48:21.061Z,8.85
2022-11-13T12:51:23.389Z,8.93
2022-11-13T12:54:36.403Z,8.85
2022-11-13T12:57:47.188Z,9.23
2022-11-13T13:01:02.461Z,8.75
2022-11-13T13:04:14.950Z,8.38
2022-11-13T13:07:29.156Z,8.73
2022-11-13T13:10:54.987Z,9.02
2022-11-13T13:14:32.432Z,9.85
2022-11-13T13:17:34.696Z,9.35
2022-11-13T13:20:39.735Z,9.93
2022-11-13T13:23:45.502Z,12.40
2022-11-13T13:26:47.688Z,9.75
2022-11-13T13:29:49.936Z,9.30
2022-11-13T13:33:12.330Z,8.98
2022-11-13T13:36:56.826Z,8.82
2022-11-13T13:40:37.892Z,11.38
2022-11-13T13:43:49.057Z,10.07
2022-11-13T13:46:51.541Z,10.02
2022-11-13T13:49:54.064Z,9.63
2022-11-13T13:52:58.043Z,8.57
2022-11-13T13:56:02.996Z,38.22
2022-11-13T13:59:05.311Z,17.12
2022-11-13T14:02:33.723Z,11.43
2022-11-13T14:05:36.820Z,9.68
2022-11-13T14:08:39.087Z,10.73
2022-11-13T14:11:43.289Z,10.00
2022-11-13T14:14:45.873Z,10.82
2022-11-13T14:17:48.097Z,9.68
2022-11-13T14:20:53.242Z,8.82
2022-11-13T14:23:56.843Z,9.43
2022-11-13T14:26:59.455Z,9.93
2022-11-13T14:30:03.148Z,9.57
2022-11-13T14:33:09.441Z,9.68
2022-11-13T14:36:12.761Z,9.45
2022-11-13T14:39:26.219Z,18.05
2022-11-13T14:42:38.348Z,16.90
2022-11-13T14:45:40.759Z,16.73
2022-11-13T14:48:53.037Z,14.32
2022-11-13T14:51:56.027Z,13.80
2022-11-13T14:55:18.796Z,13.77
2022-11-13T14:58:36.657Z,17.65
2022-11-13T15:01:39.065Z,34.10
2022-11-13T15:04:41.478Z,28.10
2022-11-13T15:07:45.658Z,23.98
2022-11-13T15:10:48.021Z,25.23
2022-11-13T15:13:50.357Z,22.13
2022-11-13T15:16:53.311Z,21.62
2022-11-13T15:19:55.505Z,52.30
2022-11-13T15:22:58.911Z,39.90
2022-11-13T15:26:01.366Z,44.60
2022-11-13T15:29:07.804Z,52.90
2022-11-13T15:32:14.228Z,47.80
2022-11-13T15:35:18.288Z,39.25
2022-11-13T15:38:20.566Z,30.98
2022-11-13T15:41:24.508Z,21.77
2022-11-13T15:44:27.240Z,34.50
2022-11-13T15:47:35.039Z,30.85
2022-11-13T15:50:37.346Z,29.27
2022-11-13T15:53:39.622Z,23.08
2022-11-13T15:56:42.490Z,22.77
2022-11-13T15:59:44.638Z,21.40
2022-11-13T16:02:50.339Z,23.58
2022-11-13T16:05:53.022Z,33.70
2022-11-13T16:08:55.217Z,33.05
2022-11-13T16:12:00.306Z,39.00
2022-11-13T16:15:02.904Z,30.52
2022-11-13T16:18:07.105Z,24.02
2022-11-13T16:21:13.011Z,25.30
2022-11-13T16:24:15.290Z,24.65
2022-11-13T16:27:29.995Z,26.58
2022-11-13T16:30:32.424Z,27.48
2022-11-13T16:33:34.627Z,23.20
2022-11-13T16:36:37.018Z,26.67
2022-11-13T16:39:39.416Z,27.87
2022-11-13T16:42:41.703Z,62.90
2022-11-13T16:45:43.944Z,69.95
2022-11-13T16:48:47.332Z,58.65
2022-11-13T16:51:51.088Z,36.60
2022-11-13T16:54:53.439Z,31.33
2022-11-13T16:57:55.895Z,28.55
2022-11-13T17:01:00.326Z,25.92
2022-11-13T17:04:02.964Z,26.70
2022-11-13T17:07:05.198Z,37.63
2022-11-13T17:10:30.393Z,40.38
2022-11-13T17:13:31.578Z,53.40
2022-11-13T17:16:34.283Z,55.50
2022-11-13T17:19:40.782Z,55.80
2022-11-13T17:22:48.245Z,63.08
2022-11-13T17:25:50.918Z,34.90
2022-11-13T17:28:54.064Z,21.15
2022-11-13T17:31:56.530Z,16.55
2022-11-13T17:34:58.969Z,14.07
2022-11-13T17:38:02.258Z,13.85
2022-11-13T17:41:07.881Z,20.40
2022-11-13T17:44:10.164Z,34.60
2022-11-13T17:47:12.666Z,119.37
2022-11-13T17:50:15.185Z,34.17
2022-11-13T17:53:17.690Z,27.67
2022-11-13T17:56:21.223Z,22.23
2022-11-13T17:59:23.744Z,23.58
2022-11-13T18:02:26.202Z,22.13
2022-11-13T18:05:28.388Z,17.95
2022-11-13T18:08:30.845Z,15.18
2022-11-13T18:11:34.057Z,16.62
2022-11-13T18:14:36.955Z,19.70
2022-11-13T18:17:39.201Z,14.07
2022-11-13T18:20:41.954Z,14.32
2022-11-13T18:23:44.493Z,13.45
2022-11-13T18:26:46.745Z,18.05
2022-11-13T18:29:49.152Z,11.80
2022-11-13T18:32:51.617Z,11.73
2022-11-13T18:35:56.008Z,8.15
2022-11-13T18:39:01.863Z,12.93
2022-11-13T18:42:04.386Z,11.57
2022-11-13T18:45:07.665Z,13.30
2022-11-13T18:48:10.151Z,8.98
2022-11-13T18:51:21.759Z,9.15
2022-11-13T18:54:23.956Z,12.77
2022-11-13T18:57:26.299Z,9.68
2022-11-13T19:00:28.796Z,11.43
2022-11-13T19:03:31.219Z,7.43
2022-11-13T19:06:35.427Z,10.90
2022-11-13T19:09:40.218Z,8.10
2022-11-13T19:12:42.713Z,8.82
2022-11-13T19:15:44.937Z,9.00
2022-11-13T19:18:55.504Z,10.70
2022-11-13T19:21:58.230Z,8.65
2022-11-13T19:25:00.782Z,8.40
2022-11-13T19:28:03.442Z,7.80
2022-11-13T19:31:14.136Z,7.82
2022-11-13T19:34:16.661Z,8.87
2022-11-13T19:37:20.684Z,13.45
2022-11-13T19:40:23.283Z,10.63
2022-11-13T19:43:25.807Z,16.20
2022-11-13T19:46:29.646Z,13.75
2022-11-13T19:49:32.074Z,9.02
2022-11-13T19:52:34.465Z,8.80
2022-11-13T19:55:36.950Z,10.70
2022-11-13T19:58:43.090Z,9.45
2022-11-13T20:01:45.630Z,8.90
2022-11-13T20:04:48.170Z,7.20
2022-11-13T20:07:50.857Z,7.50
2022-11-13T20:10:53.440Z,8.82
2022-11-13T20:13:56.778Z,7.62
2022-11-13T20:16:59.283Z,8.18
2022-11-13T20:20:01.707Z,9.65
2022-11-13T20:23:03.943Z,6.25
2022-11-13T20:26:10.138Z,8.18
2022-11-13T20:29:12.513Z,8.68
2022-11-13T20:32:15.552Z,6.40
2022-11-13T20:35:18.032Z,6.82
2022-11-13T20:38:20.486Z,7.82
2022-11-13T20:41:24.364Z,7.20
2022-11-13T20:44:26.605Z,8.02
2022-11-13T20:47:29.135Z,5.75
2022-11-13T20:50:31.464Z,7.75
2022-11-13T20:53:33.853Z,6.62
2022-11-13T20:56:36.539Z,9.27
2022-11-13T20:59:38.930Z,14.82
2022-11-13T21:02:41.375Z,28.02
2022-11-13T21:05:43.703Z,14.32
2022-11-13T21:08:46.463Z,9.02
2022-11-13T21:11:48.982Z,8.68
2022-11-13T21:14:52.090Z,9.98
2022-11-13T21:17:54.521Z,10.13
2022-11-13T21:21:04.675Z,9.35
2022-11-13T21:24:07.657Z,10.43
2022-11-13T21:27:10.032Z,9.40
2022-11-13T21:30:12.482Z,11.93
2022-11-13T21:33:15.130Z,14.60
2022-11-13T21:36:22.071Z,10.90
2022-11-13T21:39:24.263Z,7.07
2022-11-13T21:42:26.411Z,7.95
2022-11-13T21:45:28.674Z,7.37
2022-11-13T21:48:33.373Z,7.57
2022-11-13T21:51:37.544Z,6.15
2022-11-13T21:54:39.733Z,7.05
2022-11-13T21:57:41.977Z,9.45
2022-11-13T22:00:44.489Z,8.00
2022-11-13T22:03:46.661Z,8.43
2022-11-13T22:06:49.808Z,6.65
2022-11-13T22:09:52.155Z,6.93
2022-11-13T22:12:54.369Z,6.32
2022-11-13T22:15:56.922Z,8.57
2022-11-13T22:19:01.339Z,7.57
2022-11-13T22:22:03.507Z,7.87
2022-11-13T22:25:06.261Z,16.83
2022-11-13T22:28:08.424Z,7.18
2022-11-13T22:31:16.231Z,7.72
2022-11-13T22:34:18.417Z,8.13
2022-11-13T22:37:20.611Z,17.05
2022-11-13T22:40:23.145Z,6.72
2022-11-13T22:43:25.341Z,6.43
2022-11-13T22:46:29.482Z,6.43
2022-11-13T22:49:31.623Z,5.68
2022-11-13T22:52:33.800Z,7.57
2022-11-13T22:55:35.949Z,6.37
2022-11-13T22:58:38.674Z,6.65
2022-11-13T23:01:43.028Z,5.20
2022-11-13T23:04:45.194Z,4.57
2022-11-13T23:07:48.566Z,5.95
2022-11-13T23:10:54.834Z,6.07
2022-11-13T23:13:58.771Z,8.57
2022-11-13T23:17:00.992Z,7.78
2022-11-13T23:20:03.704Z,7.12
2022-11-13T23:23:05.886Z,6.15
2022-11-13T23:26:09.471Z,6.65
2022-11-13T23:29:12.405Z,6.45
2022-11-13T23:32:14.558Z,6.68
2022-11-13T23:35:16.734Z,7.25
2022-11-13T23:38:19.509Z,5.55
2022-11-13T23:41:21.716Z,5.53
2022-11-13T23:44:23.927Z,7.75
2022-11-13T23:47:26.303Z,6.32
2022-11-13T23:50:28.658Z,6.57
2022-11-13T23:53:30.949Z,6.60
2022-11-13T23:56:33.120Z,5.45
2022-11-13T23:59:35.278Z,5.82
